Time;durP1;ratioP1;P1;durP2;ratioP2;P2;SDS_P1;SDS_P2;PMS_P1;PMS_P2;Temp;Humidity;BMP_temperature;BMP_pressure;BME280_temperature;BME280_humidity;BME280_pressure;Samples;Min_cycle;Max_cycle;Signal;HPM_P1;HPM_P2
2021/11/04 00:00:13;;;;;;;0.80;0.80;;;4.30;99.50;;;;;;2081990;28;20664;-64
2021/11/04 00:01:14;;;;;;;0.60;0.60;;;4.20;99.20;;;;;;2081581;28;20195;-64
2021/11/04 00:02:15;;;;;;;0.50;0.50;;;4.10;98.60;;;;;;2082084;28;20295;-65
2021/11/04 00:03:16;;;;;;;0.40;0.40;;;4.10;98.60;;;;;;2081876;28;20430;-65
2021/11/04 00:04:16;;;;;;;0.77;0.60;;;4.00;98.80;;;;;;2082059;28;20201;-64
2021/11/04 00:05:18;;;;;;;0.33;0.33;;;4.00;99.10;;;;;;2082041;28;20638;-64
2021/11/04 00:06:19;;;;;;;0.80;0.60;;;3.90;99.20;;;;;;2082076;28;20278;-65
2021/11/04 00:07:21;;;;;;;0.40;0.40;;;3.90;99.40;;;;;;2082143;28;20189;-64
2021/11/04 00:08:23;;;;;;;0.95;0.40;;;3.80;99.10;;;;;;2082071;28;20246;-64
2021/11/04 00:09:24;;;;;;;0.47;0.47;;;3.80;99.20;;;;;;2082114;28;20226;-64
2021/11/04 00:10:25;;;;;;;0.53;0.40;;;3.70;99.40;;;;;;2082117;28;20192;-64
2021/11/04 00:11:26;;;;;;;0.50;0.32;;;3.70;99.90;;;;;;2081821;28;20415;-64
2021/11/04 00:12:27;;;;;;;0.50;0.50;;;3.70;99.70;;;;;;2082111;28;20176;-64
2021/11/04 00:13:28;;;;;;;0.60;0.40;;;3.70;99.90;;;;;;2082135;28;20607;-64
2021/11/04 00:14:28;;;;;;;0.47;0.47;;;3.70;99.90;;;;;;2082055;28;20183;-64
2021/11/04 00:15:30;;;;;;;0.40;0.33;;;3.70;99.90;;;;;;2082052;28;20256;-64
2021/11/04 00:16:30;;;;;;;0.40;0.40;;;3.60;99.60;;;;;;2081022;28;20234;-64
2021/11/04 00:17:31;;;;;;;0.93;0.40;;;3.60;99.90;;;;;;2081956;28;20208;-64
2021/11/04 00:18:32;;;;;;;0.20;0.20;;;3.60;99.90;;;;;;2082005;28;20181;-64
2021/11/04 00:19:33;;;;;;;0.25;0.25;;;3.60;99.90;;;;;;2082148;28;20549;-64
2021/11/04 00:20:33;;;;;;;0.30;0.30;;;3.60;99.90;;;;;;2082075;28;20200;-64
2021/11/04 00:21:34;;;;;;;0.30;0.30;;;3.50;99.90;;;;;;2081837;28;20594;-64
2021/11/04 00:22:35;;;;;;;0.30;0.30;;;3.50;99.90;;;;;;2081899;28;20222;-64
2021/11/04 00:23:36;;;;;;;0.30;0.30;;;3.50;99.90;;;;;;2081985;28;20577;-64
2021/11/04 00:24:37;;;;;;;0.30;0.20;;;3.50;99.40;;;;;;2081758;28;20303;-64
2021/11/04 00:25:39;;;;;;;0.10;0.10;;;3.40;99.60;;;;;;2081963;28;20180;-64
2021/11/04 00:26:40;;;;;;;0.20;0.20;;;3.40;99.90;;;;;;2081912;28;20180;-64
2021/11/04 00:27:40;;;;;;;0.20;0.20;;;3.40;99.90;;;;;;2081750;28;20204;-64
2021/11/04 00:28:41;;;;;;;0.60;0.33;;;3.40;99.90;;;;;;2081876;28;20180;-64
2021/11/04 00:29:42;;;;;;;0.30;0.30;;;3.40;99.90;;;;;;2081845;28;20521;-64
2021/11/04 00:30:43;;;;;;;0.30;0.30;;;3.40;99.90;;;;;;2081675;28;20178;-64
2021/11/04 00:31:44;;;;;;;0.20;0.20;;;3.30;99.90;;;;;;2081656;28;20325;-64
2021/11/04 00:32:51;;;;;;;0.22;0.22;;;3.30;99.90;;;;;;2081212;28;20172;-64
2021/11/04 00:33:52;;;;;;;0.30;0.22;;;3.30;99.90;;;;;;2081468;28;20177;-64
2021/11/04 00:34:53;;;;;;;0.45;0.22;;;3.20;99.90;;;;;;2081875;28;20673;-64
2021/11/04 00:35:53;;;;;;;0.33;0.33;;;3.20;99.90;;;;;;2081877;28;20201;-64
2021/11/04 00:36:54;;;;;;;0.20;0.20;;;3.20;99.90;;;;;;2081883;28;20190;-64
2021/11/04 00:37:56;;;;;;;0.30;0.30;;;3.20;99.90;;;;;;2081921;28;20207;-64
2021/11/04 00:38:56;;;;;;;0.40;0.40;;;3.20;99.90;;;;;;2081819;28;20210;-64
2021/11/04 00:39:57;;;;;;;0.40;0.40;;;3.10;98.50;;;;;;2081903;28;20199;-64
2021/11/04 00:40:58;;;;;;;0.63;0.50;;;3.10;98.40;;;;;;2081679;28;20270;-64
2021/11/04 00:41:59;;;;;;;0.67;0.67;;;3.00;98.80;;;;;;2081805;28;20270;-64
2021/11/04 00:43:00;;;;;;;0.80;0.70;;;3.00;99.20;;;;;;2081708;28;20253;-64
2021/11/04 00:44:02;;;;;;;0.60;0.60;;;2.90;99.50;;;;;;2081726;28;20190;-64
2021/11/04 00:45:04;;;;;;;0.38;0.38;;;3.00;99.40;;;;;;2081638;28;20649;-64
2021/11/04 00:46:05;;;;;;;0.50;0.50;;;2.90;99.10;;;;;;2081746;28;20187;-64
2021/11/04 00:47:06;;;;;;;0.50;0.50;;;2.90;99.30;;;;;;2081704;28;20196;-64
2021/11/04 00:48:07;;;;;;;0.40;0.40;;;2.90;99.10;;;;;;2081834;28;20189;-64
2021/11/04 00:49:08;;;;;;;0.60;0.60;;;2.80;99.90;;;;;;2081712;28;20205;-64
2021/11/04 00:50:09;;;;;;;0.47;0.47;;;2.80;99.60;;;;;;2081662;28;20711;-64
2021/11/04 00:51:10;;;;;;;0.35;0.35;;;2.80;99.90;;;;;;2081520;28;20413;-64
2021/11/04 00:52:10;;;;;;;0.57;0.53;;;2.80;99.90;;;;;;2082514;28;20259;-64
2021/11/04 00:53:11;;;;;;;0.63;0.63;;;2.80;99.90;;;;;;2081703;28;20203;-64
2021/11/04 00:54:12;;;;;;;0.40;0.40;;;2.80;99.90;;;;;;2081779;28;20547;-64
2021/11/04 00:55:13;;;;;;;0.70;0.60;;;2.80;99.90;;;;;;2081725;28;20554;-64
2021/11/04 00:56:13;;;;;;;0.40;0.40;;;2.80;99.90;;;;;;2081862;28;20583;-64
2021/11/04 00:57:14;;;;;;;0.60;0.60;;;2.80;99.90;;;;;;2081675;28;20183;-64
2021/11/04 00:58:17;;;;;;;0.60;0.60;;;2.70;99.90;;;;;;2081739;28;20187;-64
2021/11/04 00:59:18;;;;;;;0.60;0.40;;;2.80;99.90;;;;;;2081509;28;20183;-64
2021/11/04 01:00:19;;;;;;;0.63;0.40;;;2.80;99.90;;;;;;2081606;28;20189;-64
2021/11/04 01:01:22;;;;;;;0.65;0.60;;;2.80;99.90;;;;;;2081394;28;20184;-64
2021/11/04 01:02:22;;;;;;;0.50;0.50;;;2.70;99.90;;;;;;2081628;28;20210;-64
2021/11/04 01:03:25;;;;;;;0.57;0.50;;;2.70;99.90;;;;;;2081667;28;20185;-65
2021/11/04 01:04:26;;;;;;;0.50;0.50;;;2.70;99.90;;;;;;2081431;28;20245;-65
2021/11/04 01:05:26;;;;;;;0.60;0.60;;;2.70;99.90;;;;;;2081576;28;20620;-64
2021/11/04 01:06:27;;;;;;;0.70;0.70;;;2.70;99.90;;;;;;2081612;28;20182;-64
2021/11/04 01:07:28;;;;;;;0.60;0.60;;;2.70;99.90;;;;;;2081562;28;20192;-64
2021/11/04 01:08:29;;;;;;;0.53;0.53;;;2.70;99.90;;;;;;2081497;28;20176;-64
2021/11/04 01:09:29;;;;;;;0.70;0.70;;;2.80;99.90;;;;;;2081592;28;20177;-64
2021/11/04 01:10:30;;;;;;;0.57;0.57;;;2.80;99.90;;;;;;2081689;28;20604;-64
2021/11/04 01:11:32;;;;;;;0.67;0.60;;;2.70;99.90;;;;;;2081532;28;20197;-64
2021/11/04 01:12:33;;;;;;;0.70;0.70;;;2.80;99.90;;;;;;2081577;28;20524;-64
2021/11/04 01:13:36;;;;;;;0.50;0.50;;;2.80;99.90;;;;;;2081552;28;20179;-64
2021/11/04 01:14:36;;;;;;;0.75;0.70;;;2.80;99.90;;;;;;2081489;28;20177;-64
2021/11/04 01:15:37;;;;;;;0.70;0.70;;;2.80;99.90;;;;;;2081497;28;20188;-64
2021/11/04 01:16:38;;;;;;;0.50;0.50;;;2.90;99.90;;;;;;2081639;28;20191;-64
2021/11/04 01:17:39;;;;;;;0.70;0.70;;;2.90;99.90;;;;;;2081477;28;20198;-64
2021/11/04 01:18:40;;;;;;;0.60;0.60;;;2.90;99.90;;;;;;2081448;28;20185;-64
2021/11/04 01:19:41;;;;;;;0.68;0.68;;;2.90;99.90;;;;;;2081532;28;20231;-64
2021/11/04 01:20:42;;;;;;;0.60;0.60;;;2.90;99.70;;;;;;2081437;28;20187;-64
2021/11/04 01:21:43;;;;;;;0.70;0.70;;;2.90;99.60;;;;;;2081283;28;20186;-64
2021/11/04 01:22:44;;;;;;;0.80;0.70;;;2.90;99.40;;;;;;2081498;28;20681;-64
2021/11/04 01:23:44;;;;;;;0.70;0.70;;;2.90;99.60;;;;;;2081603;28;20204;-64
2021/11/04 01:24:45;;;;;;;0.73;0.73;;;3.00;99.70;;;;;;2081398;28;20560;-64
2021/11/04 01:25:46;;;;;;;1.17;0.90;;;3.00;99.80;;;;;;2081529;28;20180;-64
2021/11/04 01:26:47;;;;;;;0.70;0.70;;;3.00;99.80;;;;;;2081223;28;20200;-64
2021/11/04 01:27:48;;;;;;;0.70;0.70;;;3.00;99.80;;;;;;2081319;28;20218;-64
2021/11/04 01:28:48;;;;;;;0.70;0.70;;;3.00;99.80;;;;;;2081519;28;20183;-64
2021/11/04 01:29:49;;;;;;;0.90;0.80;;;3.00;99.70;;;;;;2081594;28;20209;-64
2021/11/04 01:30:50;;;;;;;1.10;1.00;;;3.00;99.70;;;;;;2081404;28;20591;-64
2021/11/04 01:31:51;;;;;;;1.07;0.93;;;3.10;99.80;;;;;;2081143;28;20181;-64
2021/11/04 01:32:51;;;;;;;0.70;0.70;;;3.10;99.70;;;;;;2081431;28;20501;-64
2021/11/04 01:33:53;;;;;;;0.93;0.90;;;3.00;99.50;;;;;;2081407;28;20457;-64
2021/11/04 01:34:54;;;;;;;1.20;1.00;;;3.10;99.50;;;;;;2081344;28;20192;-64
2021/11/04 01:35:55;;;;;;;0.97;0.87;;;3.10;99.50;;;;;;2081465;28;20197;-64
2021/11/04 01:36:56;;;;;;;1.00;0.90;;;3.10;99.20;;;;;;2081259;28;20190;-64
2021/11/04 01:37:58;;;;;;;1.00;0.90;;;3.10;98.80;;;;;;2081051;28;20584;-64
2021/11/04 01:38:59;;;;;;;0.90;0.90;;;3.00;98.80;;;;;;2081302;28;20233;-64
2021/11/04 01:40:00;;;;;;;0.87;0.87;;;3.00;99.10;;;;;;2081436;28;20185;-64
2021/11/04 01:41:01;;;;;;;0.83;0.77;;;3.00;99.40;;;;;;2081061;28;20181;-64
2021/11/04 01:42:02;;;;;;;1.40;1.00;;;3.00;99.30;;;;;;2081114;28;20610;-64
2021/11/04 01:43:04;;;;;;;1.42;1.08;;;2.90;99.40;;;;;;2081217;28;20190;-64
2021/11/04 01:44:05;;;;;;;1.33;0.93;;;2.90;99.60;;;;;;2081237;28;20750;-64
2021/11/04 01:45:05;;;;;;;1.07;1.00;;;3.00;99.80;;;;;;2081386;28;20222;-64
2021/11/04 01:46:06;;;;;;;1.20;1.10;;;3.00;99.90;;;;;;2081236;28;20643;-64
2021/11/04 01:47:11;;;;;;;1.20;1.10;;;3.00;99.90;;;;;;2081350;28;20948;-64
2021/11/04 01:48:11;;;;;;;0.90;0.90;;;3.00;99.50;;;;;;2081184;28;20179;-64
2021/11/04 01:49:12;;;;;;;1.10;1.00;;;3.00;98.90;;;;;;2080706;28;20666;-64
2021/11/04 01:50:18;;;;;;;1.20;1.10;;;3.00;98.80;;;;;;2072326;28;20283;-64
2021/11/04 01:51:20;;;;;;;1.40;1.30;;;2.90;99.00;;;;;;2080244;28;20176;-64
2021/11/04 01:52:22;;;;;;;1.40;1.30;;;3.00;99.20;;;;;;2081191;28;20188;-64
2021/11/04 01:53:23;;;;;;;1.10;1.00;;;2.90;99.10;;;;;;2081157;28;20178;-64
2021/11/04 01:54:23;;;;;;;2.40;1.23;;;3.00;98.80;;;;;;2081339;28;20456;-64
2021/11/04 01:55:27;;;;;;;1.20;1.10;;;3.00;98.90;;;;;;2081446;28;20662;-64
2021/11/04 01:56:28;;;;;;;1.40;1.20;;;2.90;99.30;;;;;;2081263;28;20230;-64
2021/11/04 01:57:29;;;;;;;1.30;1.20;;;2.90;99.60;;;;;;2081167;28;20202;-64
2021/11/04 01:58:30;;;;;;;1.67;1.50;;;2.90;99.60;;;;;;2081113;28;20235;-64
2021/11/04 01:59:31;;;;;;;1.70;1.53;;;2.80;99.20;;;;;;2081459;28;20218;-64
2021/11/04 02:00:33;;;;;;;1.70;1.40;;;2.80;99.30;;;;;;2081491;28;20540;-64
2021/11/04 02:01:34;;;;;;;1.90;1.58;;;2.80;98.80;;;;;;2081540;28;20654;-64
2021/11/04 02:02:44;;;;;;;1.77;1.50;;;2.80;99.10;;;;;;2081625;28;20545;-64
2021/11/04 02:04:07;;;;;;;1.88;1.60;;;2.80;99.40;;;;;;2081265;28;20237;-64
2021/11/04 02:05:10;;;;;;;2.15;1.92;;;2.80;99.60;;;;;;2081282;28;20576;-64
2021/11/04 02:06:50;;;;;;;1.90;1.70;;;2.80;99.70;;;;;;2080592;28;20211;-65
2021/11/04 02:08:20;;;;;;;2.03;1.83;;;2.70;99.30;;;;;;2066353;28;20242;-64
2021/11/04 02:09:36;;;;;;;3.17;2.10;;;2.80;99.80;;;;;;2081250;28;20193;-64
2021/11/04 02:10:44;;;;;;;2.10;1.70;;;2.80;99.90;;;;;;2080750;28;20176;-64
2021/11/04 02:12:06;;;;;;;1.70;1.60;;;2.80;99.30;;;;;;2073316;28;20563;-64
2021/11/04 02:13:13;;;;;;;3.55;2.05;;;2.80;99.10;;;;;;2081052;28;20235;-64
2021/11/04 02:14:22;;;;;;;2.53;2.10;;;2.80;99.50;;;;;;2081214;28;20631;-64
2021/11/04 02:15:26;;;;;;;2.88;2.30;;;2.80;99.90;;;;;;2080694;28;20246;-64
2021/11/04 02:16:30;;;;;;;2.38;2.17;;;2.90;99.90;;;;;;2080746;28;20264;-65
2021/11/04 02:17:33;;;;;;;3.40;2.33;;;2.90;99.90;;;;;;2081428;28;20209;-64
2021/11/04 02:18:34;;;;;;;2.80;2.40;;;2.90;99.70;;;;;;2080612;28;20294;-64
2021/11/04 02:19:49;;;;;;;2.60;2.25;;;2.90;99.50;;;;;;2072557;28;20208;-64
2021/11/04 02:21:24;;;;;;;3.10;2.50;;;2.90;99.60;;;;;;2080666;28;20170;-64
2021/11/04 02:22:40;;;;;;;2.35;2.00;;;2.90;99.90;;;;;;2081301;28;20259;-64
2021/11/04 02:24:41;;;;;;;3.13;2.08;;;2.80;99.70;;;;;;2080560;28;20692;-64
2021/11/04 02:25:42;;;;;;;5.35;2.20;;;2.80;99.90;;;;;;2079939;28;20274;-64
2021/11/04 02:26:43;;;;;;;2.38;1.75;;;2.80;99.90;;;;;;2080633;28;20195;-64
2021/11/04 02:27:51;;;;;;;2.53;2.30;;;2.80;99.90;;;;;;2081039;28;20210;-64
2021/11/04 02:28:53;;;;;;;3.30;1.98;;;2.80;99.90;;;;;;2081276;28;20186;-64
2021/11/04 02:29:54;;;;;;;2.47;1.92;;;2.90;99.90;;;;;;2080348;28;20200;-65
2021/11/04 02:30:55;;;;;;;2.17;1.83;;;2.90;99.90;;;;;;2072428;28;20191;-65
2021/11/04 02:31:58;;;;;;;2.70;2.08;;;2.90;99.90;;;;;;2072159;28;20674;-64
2021/11/04 02:33:00;;;;;;;1.75;1.65;;;2.90;99.90;;;;;;2072634;28;20271;-64
2021/11/04 02:34:01;;;;;;;1.95;1.80;;;2.90;99.90;;;;;;2080591;28;20245;-64
2021/11/04 02:35:02;;;;;;;1.97;1.77;;;2.90;99.90;;;;;;2081052;28;20345;-64
2021/11/04 02:36:05;;;;;;;1.90;1.60;;;2.90;99.90;;;;;;2080950;28;20552;-64
2021/11/04 02:37:08;;;;;;;2.80;1.80;;;2.90;99.90;;;;;;2081064;28;20650;-64
2021/11/04 02:38:08;;;;;;;1.38;1.27;;;2.90;99.90;;;;;;2080499;28;20561;-64
2021/11/04 02:39:10;;;;;;;2.07;1.87;;;2.80;99.90;;;;;;2080510;28;20188;-64
2021/11/04 02:40:12;;;;;;;2.17;1.80;;;2.90;99.90;;;;;;2081594;28;20583;-64
2021/11/04 02:41:12;;;;;;;2.53;1.90;;;2.90;99.90;;;;;;2073812;28;20188;-65
2021/11/04 02:42:13;;;;;;;2.27;2.07;;;2.90;99.90;;;;;;2081977;28;20210;-64
2021/11/04 02:43:17;;;;;;;1.80;1.70;;;2.90;99.90;;;;;;2082663;28;20428;-65
2021/11/04 02:44:18;;;;;;;1.80;1.42;;;3.00;99.90;;;;;;2082619;28;20200;-65
2021/11/04 02:45:23;;;;;;;1.92;1.80;;;3.00;99.10;;;;;;2082169;28;20191;-64
2021/11/04 02:46:25;;;;;;;2.28;1.90;;;2.90;99.20;;;;;;2081941;28;20175;-64
2021/11/04 02:47:26;;;;;;;1.88;1.77;;;2.90;99.40;;;;;;2082592;28;20191;-64
2021/11/04 02:48:31;;;;;;;2.10;1.90;;;3.00;99.30;;;;;;2082561;28;20324;-64
2021/11/04 02:49:35;;;;;;;1.65;1.55;;;3.00;99.40;;;;;;2082836;28;20184;-64
2021/11/04 02:50:36;;;;;;;2.33;1.65;;;3.00;99.20;;;;;;2082627;28;20271;-64
2021/11/04 02:51:38;;;;;;;1.60;1.50;;;3.00;99.00;;;;;;2082457;28;20186;-64
2021/11/04 02:52:39;;;;;;;3.05;2.22;;;3.10;99.10;;;;;;2082716;28;20184;-64
2021/11/04 02:53:45;;;;;;;1.93;1.80;;;3.10;99.10;;;;;;2082698;28;20197;-65
2021/11/04 02:54:55;;;;;;;2.10;1.90;;;3.10;98.90;;;;;;2082567;28;20486;-64
2021/11/04 02:55:56;;;;;;;3.90;2.50;;;3.10;98.80;;;;;;2082628;28;20224;-64
2021/11/04 02:56:58;;;;;;;3.90;2.30;;;3.10;98.60;;;;;;2082575;28;20203;-64
2021/11/04 02:58:05;;;;;;;1.92;1.75;;;3.10;98.60;;;;;;2082012;28;20206;-64
2021/11/04 02:59:06;;;;;;;3.20;2.30;;;3.10;98.70;;;;;;2082122;28;20435;-64
2021/11/04 03:00:07;;;;;;;2.17;1.97;;;3.10;98.90;;;;;;2082677;28;20182;-64
2021/11/04 03:01:08;;;;;;;2.80;2.00;;;3.10;99.10;;;;;;2082230;28;20192;-64
2021/11/04 03:02:09;;;;;;;1.77;1.60;;;3.10;99.10;;;;;;2082632;28;20183;-64
2021/11/04 03:03:09;;;;;;;2.60;2.27;;;3.00;99.00;;;;;;2082394;28;20422;-64
2021/11/04 03:04:11;;;;;;;4.23;2.50;;;3.00;99.20;;;;;;2082623;28;20236;-64
2021/11/04 03:05:12;;;;;;;3.83;2.40;;;3.00;99.30;;;;;;2082368;28;20211;-64
2021/11/04 03:06:13;;;;;;;3.33;2.50;;;3.00;99.30;;;;;;2082672;28;20198;-64
2021/11/04 03:07:13;;;;;;;4.20;2.70;;;3.00;99.30;;;;;;2082341;28;20275;-64
2021/11/04 03:08:14;;;;;;;5.57;3.13;;;3.00;99.10;;;;;;2082580;28;20417;-64
2021/11/04 03:09:18;;;;;;;5.13;3.73;;;3.00;99.10;;;;;;2082474;28;20227;-64
2021/11/04 03:10:20;;;;;;;4.30;3.25;;;3.00;99.30;;;;;;2082631;28;20232;-64
2021/11/04 03:11:21;;;;;;;7.47;3.25;;;3.00;99.60;;;;;;2082197;28;20624;-64
2021/11/04 03:12:21;;;;;;;5.00;3.57;;;2.90;99.60;;;;;;2082476;28;20183;-64
2021/11/04 03:13:23;;;;;;;5.13;3.40;;;2.90;99.90;;;;;;2082375;28;20642;-64
2021/11/04 03:14:23;;;;;;;3.50;2.88;;;2.90;99.90;;;;;;2082469;28;20669;-64
2021/11/04 03:15:28;;;;;;;3.40;2.63;;;3.00;99.90;;;;;;2082512;28;20278;-64
2021/11/04 03:16:53;;;;;;;3.90;2.45;;;2.90;99.90;;;;;;2082618;28;20185;-64
2021/11/04 03:17:54;;;;;;;2.95;2.25;;;3.00;99.90;;;;;;2082304;28;20234;-64
2021/11/04 03:18:57;;;;;;;2.75;2.40;;;2.90;99.80;;;;;;2081809;28;20597;-64
2021/11/04 03:19:58;;;;;;;3.45;2.40;;;2.90;99.90;;;;;;2074152;28;20330;-64
2021/11/04 03:21:00;;;;;;;2.50;2.17;;;2.90;99.90;;;;;;2081789;28;20688;-65
2021/11/04 03:22:02;;;;;;;1.88;1.67;;;2.90;99.90;;;;;;2082333;28;20567;-64
2021/11/04 03:23:04;;;;;;;2.33;2.00;;;2.90;99.60;;;;;;2082419;28;20183;-64
2021/11/04 03:24:06;;;;;;;2.50;1.70;;;2.80;99.50;;;;;;2081909;28;20200;-64
2021/11/04 03:25:09;;;;;;;2.08;1.80;;;2.80;99.40;;;;;;2073735;28;20216;-64
2021/11/04 03:26:11;;;;;;;1.80;1.70;;;2.80;99.80;;;;;;2081635;28;20183;-64
2021/11/04 03:27:13;;;;;;;2.03;1.75;;;2.70;99.90;;;;;;2081761;28;20212;-64
2021/11/04 03:28:15;;;;;;;3.63;1.60;;;2.70;99.70;;;;;;2073707;28;20186;-64
2021/11/04 03:29:19;;;;;;;2.05;1.83;;;2.70;99.60;;;;;;2073821;28;20188;-64
2021/11/04 03:30:24;;;;;;;1.85;1.60;;;2.70;99.90;;;;;;2081736;28;20187;-64
2021/11/04 03:31:26;;;;;;;1.88;1.77;;;2.70;99.90;;;;;;2082157;28;20177;-64
2021/11/04 03:32:27;;;;;;;1.67;1.58;;;2.60;99.90;;;;;;2081833;28;20198;-64
2021/11/04 03:33:29;;;;;;;1.80;1.48;;;2.60;99.90;;;;;;2081764;28;20189;-64
2021/11/04 03:34:32;;;;;;;2.10;1.90;;;2.60;99.90;;;;;;2081665;28;20179;-64
2021/11/04 03:35:36;;;;;;;2.30;1.90;;;2.60;99.90;;;;;;2081901;28;20187;-64
2021/11/04 03:36:40;;;;;;;2.17;1.98;;;2.60;99.90;;;;;;2081651;28;20677;-64
2021/11/04 03:37:46;;;;;;;2.20;1.80;;;2.60;99.90;;;;;;2074045;28;20200;-64
2021/11/04 03:38:48;;;;;;;2.35;1.92;;;2.60;99.90;;;;;;2081781;28;20186;-64
2021/11/04 03:39:50;;;;;;;2.17;1.98;;;2.60;99.90;;;;;;2081518;28;20225;-64
2021/11/04 03:40:52;;;;;;;1.67;1.58;;;2.60;99.90;;;;;;2073645;28;20266;-64
2021/11/04 03:41:56;;;;;;;2.20;2.00;;;2.60;99.90;;;;;;2081082;28;20229;-64
2021/11/04 03:42:57;;;;;;;2.30;2.10;;;2.60;99.90;;;;;;2081565;28;20206;-64
2021/11/04 03:43:58;;;;;;;2.53;2.05;;;2.60;99.90;;;;;;2073648;28;20238;-64
2021/11/04 03:45:01;;;;;;;2.10;1.90;;;2.60;99.90;;;;;;2081455;28;20811;-64
2021/11/04 03:46:02;;;;;;;2.40;2.08;;;2.60;99.90;;;;;;2082327;28;20197;-64
2021/11/04 03:47:03;;;;;;;2.35;2.05;;;2.60;99.90;;;;;;2081524;28;20185;-64
2021/11/04 03:48:06;;;;;;;2.50;2.30;;;2.60;99.90;;;;;;2079937;28;20281;-64
2021/11/04 03:49:07;;;;;;;2.00;1.80;;;2.60;99.90;;;;;;2081535;28;20821;-64
2021/11/04 03:50:12;;;;;;;1.90;1.80;;;2.60;99.90;;;;;;2081884;28;20654;-64
2021/11/04 03:51:14;;;;;;;1.98;1.77;;;2.60;99.90;;;;;;2081135;28;20249;-64
2021/11/04 03:52:16;;;;;;;2.22;2.03;;;2.60;99.90;;;;;;2082034;28;20628;-64
2021/11/04 03:53:16;;;;;;;2.05;1.88;;;2.60;99.90;;;;;;2081319;28;20637;-64
2021/11/04 03:54:22;;;;;;;2.07;1.87;;;2.60;99.90;;;;;;2081536;28;20190;-64
2021/11/04 03:55:25;;;;;;;1.67;1.58;;;2.60;99.90;;;;;;2081435;28;20290;-64
2021/11/04 03:56:26;;;;;;;2.00;1.80;;;2.50;99.90;;;;;;2081601;28;20369;-64
2021/11/04 03:57:28;;;;;;;2.17;1.97;;;2.50;99.90;;;;;;2081439;28;20313;-64
2021/11/04 03:58:30;;;;;;;2.00;1.88;;;2.50;99.90;;;;;;2081531;28;20205;-64
2021/11/04 03:59:30;;;;;;;1.90;1.80;;;2.50;99.90;;;;;;2081550;28;20273;-64
2021/11/04 04:00:31;;;;;;;1.83;1.70;;;2.50;99.90;;;;;;2073488;28;20720;-64
2021/11/04 04:01:34;;;;;;;2.47;1.80;;;2.50;99.90;;;;;;2081337;28;20200;-64
2021/11/04 04:02:35;;;;;;;1.80;1.67;;;2.50;99.90;;;;;;2082244;28;20188;-64
2021/11/04 04:03:36;;;;;;;2.10;1.80;;;2.50;99.90;;;;;;2082308;28;20233;-64
2021/11/04 04:04:39;;;;;;;1.60;1.50;;;2.40;99.90;;;;;;2082207;28;20210;-64
2021/11/04 04:05:40;;;;;;;2.00;1.80;;;2.40;99.90;;;;;;2082297;28;20179;-64
2021/11/04 04:06:41;;;;;;;1.70;1.40;;;2.50;99.90;;;;;;2081899;28;20227;-65
2021/11/04 04:07:43;;;;;;;2.10;1.77;;;2.50;99.90;;;;;;2082057;28;20211;-64
2021/11/04 04:08:49;;;;;;;2.10;1.83;;;2.50;99.90;;;;;;2082083;28;20180;-64
2021/11/04 04:09:50;;;;;;;2.28;2.08;;;2.50;99.90;;;;;;2082130;28;20182;-64
2021/11/04 04:10:51;;;;;;;2.30;1.90;;;2.50;99.90;;;;;;2081976;28;20199;-64
2021/11/04 04:11:53;;;;;;;2.20;1.83;;;2.50;99.90;;;;;;2081790;28;20323;-64
2021/11/04 04:12:54;;;;;;;2.78;2.03;;;2.50;99.90;;;;;;2082058;28;20235;-64
2021/11/04 04:13:55;;;;;;;2.45;2.00;;;2.50;99.90;;;;;;2082188;28;20440;-64
2021/11/04 04:14:56;;;;;;;2.10;1.90;;;2.50;99.90;;;;;;2082096;28;20192;-64
2021/11/04 04:15:57;;;;;;;2.00;1.80;;;2.50;99.90;;;;;;2081987;28;20281;-64
2021/11/04 04:16:58;;;;;;;2.10;1.85;;;2.50;99.90;;;;;;2081896;28;20187;-64
2021/11/04 04:17:58;;;;;;;2.10;1.80;;;2.50;99.90;;;;;;2082091;28;20205;-64
2021/11/04 04:18:59;;;;;;;1.90;1.67;;;2.50;99.90;;;;;;2082001;28;20194;-64
2021/11/04 04:20:00;;;;;;;1.60;1.50;;;2.50;99.90;;;;;;2082137;28;20187;-64
2021/11/04 04:21:01;;;;;;;1.70;1.60;;;2.50;99.90;;;;;;2081777;28;20193;-65
2021/11/04 04:22:02;;;;;;;1.57;1.43;;;2.50;99.90;;;;;;2081973;28;20216;-64
2021/11/04 04:23:03;;;;;;;2.13;1.90;;;2.50;99.90;;;;;;2082007;28;20186;-64
2021/11/04 04:24:04;;;;;;;1.67;1.58;;;2.50;99.90;;;;;;2082003;28;20196;-64
2021/11/04 04:25:06;;;;;;;2.10;1.90;;;2.50;99.90;;;;;;2081877;28;20204;-64
2021/11/04 04:26:08;;;;;;;2.80;1.80;;;2.60;99.90;;;;;;2081856;28;20194;-65
2021/11/04 04:27:10;;;;;;;2.50;1.80;;;2.60;99.90;;;;;;2081788;28;20231;-64
2021/11/04 04:28:10;;;;;;;1.50;1.30;;;2.60;99.90;;;;;;2081817;28;20181;-64
2021/11/04 04:29:11;;;;;;;1.70;1.60;;;2.60;99.90;;;;;;2081891;28;20203;-64
2021/11/04 04:30:12;;;;;;;1.70;1.50;;;2.60;99.90;;;;;;2082126;28;20656;-64
2021/11/04 04:31:13;;;;;;;1.50;1.40;;;2.50;99.90;;;;;;2081699;28;20174;-64
2021/11/04 04:32:13;;;;;;;1.47;1.30;;;2.60;99.90;;;;;;2082062;28;20181;-64
2021/11/04 04:33:14;;;;;;;1.97;1.70;;;2.50;99.90;;;;;;2081641;28;20177;-64
2021/11/04 04:34:15;;;;;;;1.60;1.50;;;2.50;99.90;;;;;;2081941;28;20180;-64
2021/11/04 04:35:17;;;;;;;1.33;1.20;;;2.60;99.90;;;;;;2081844;28;20556;-64
2021/11/04 04:36:17;;;;;;;1.77;1.55;;;2.60;99.90;;;;;;2081862;28;20693;-64
2021/11/04 04:37:18;;;;;;;1.57;1.40;;;2.60;99.90;;;;;;2081865;28;20219;-64
2021/11/04 04:38:19;;;;;;;1.47;1.30;;;2.60;99.90;;;;;;2081806;28;20557;-64
2021/11/04 04:39:21;;;;;;;1.60;1.40;;;2.60;99.90;;;;;;2082000;28;20188;-64
2021/11/04 04:40:21;;;;;;;1.92;1.73;;;2.60;99.90;;;;;;2081886;28;20240;-64
2021/11/04 04:41:22;;;;;;;1.90;1.70;;;2.60;99.90;;;;;;2081628;28;20638;-64
2021/11/04 04:42:23;;;;;;;2.00;1.60;;;2.60;99.90;;;;;;2081837;28;20183;-64
2021/11/04 04:43:23;;;;;;;1.90;1.70;;;2.60;99.90;;;;;;2081761;28;20220;-64
2021/11/04 04:44:24;;;;;;;1.70;1.50;;;2.60;99.90;;;;;;2081570;28;20171;-64
2021/11/04 04:45:25;;;;;;;1.60;1.37;;;2.60;99.90;;;;;;2081917;28;20179;-64
2021/11/04 04:46:26;;;;;;;1.80;1.70;;;2.70;99.90;;;;;;2081664;28;20679;-64
2021/11/04 04:47:26;;;;;;;1.60;1.50;;;2.70;99.90;;;;;;2081739;28;20197;-64
2021/11/04 04:48:27;;;;;;;1.50;1.40;;;2.60;99.90;;;;;;2081722;28;20184;-64
2021/11/04 04:49:28;;;;;;;2.30;1.73;;;2.70;99.90;;;;;;2081622;28;20171;-64
2021/11/04 04:50:28;;;;;;;1.70;1.47;;;2.70;99.90;;;;;;2081590;28;20588;-64
2021/11/04 04:51:29;;;;;;;1.83;1.50;;;2.70;99.90;;;;;;2081525;28;20177;-64
2021/11/04 04:52:31;;;;;;;2.30;1.77;;;2.70;99.90;;;;;;2081800;28;20179;-64
2021/11/04 04:53:32;;;;;;;2.28;1.55;;;2.70;99.90;;;;;;2081758;28;20706;-64
2021/11/04 04:54:32;;;;;;;1.70;1.50;;;2.60;99.90;;;;;;2081658;28;20192;-64
2021/11/04 04:55:33;;;;;;;2.00;1.50;;;2.70;99.90;;;;;;2081775;28;20184;-64
2021/11/04 04:56:34;;;;;;;1.52;1.40;;;2.70;99.90;;;;;;2081722;28;20201;-64
2021/11/04 04:57:36;;;;;;;1.63;1.50;;;2.70;99.90;;;;;;2081711;28;20662;-64
2021/11/04 04:58:36;;;;;;;1.60;1.50;;;2.70;99.90;;;;;;2081697;28;20180;-65
2021/11/04 04:59:37;;;;;;;1.57;1.30;;;2.70;99.90;;;;;;2081739;28;20191;-64
2021/11/04 05:00:38;;;;;;;1.57;1.47;;;2.60;99.90;;;;;;2081533;28;20264;-64
2021/11/04 05:01:38;;;;;;;1.53;1.43;;;2.60;99.70;;;;;;2081584;28;20250;-64
2021/11/04 05:02:44;;;;;;;2.00;1.60;;;2.50;99.80;;;;;;2081361;28;20180;-64
2021/11/04 05:03:45;;;;;;;1.63;1.48;;;2.50;99.90;;;;;;2081864;28;20164;-64
2021/11/04 05:04:46;;;;;;;1.67;1.50;;;2.50;99.90;;;;;;2081688;28;20681;-64
2021/11/04 05:05:46;;;;;;;1.20;1.10;;;2.50;99.90;;;;;;2081638;28;20179;-64
2021/11/04 05:06:47;;;;;;;1.73;1.37;;;2.50;99.90;;;;;;2081651;28;20233;-64
2021/11/04 05:07:48;;;;;;;1.70;1.30;;;2.50;99.90;;;;;;2081682;28;20197;-64
2021/11/04 05:08:49;;;;;;;1.90;1.52;;;2.50;99.90;;;;;;2081707;28;20233;-64
2021/11/04 05:09:50;;;;;;;1.17;1.07;;;2.50;99.90;;;;;;2081883;28;20648;-64
2021/11/04 05:10:50;;;;;;;1.20;1.10;;;2.40;99.90;;;;;;2081418;28;20663;-64
2021/11/04 05:11:51;;;;;;;1.60;1.20;;;2.40;99.90;;;;;;2081472;28;20186;-63
2021/11/04 05:12:52;;;;;;;1.93;1.27;;;2.40;99.90;;;;;;2081637;28;20173;-64
2021/11/04 05:13:52;;;;;;;1.37;1.20;;;2.40;99.90;;;;;;2081825;28;20177;-64
2021/11/04 05:14:53;;;;;;;1.40;1.17;;;2.40;99.90;;;;;;2081681;28;20188;-63
2021/11/04 05:15:54;;;;;;;2.83;1.43;;;2.40;99.90;;;;;;2081661;28;20216;-63
2021/11/04 05:16:54;;;;;;;1.30;1.20;;;2.40;99.90;;;;;;2081581;28;20581;-63
2021/11/04 05:17:55;;;;;;;1.43;1.33;;;2.40;99.90;;;;;;2081623;28;20224;-63
2021/11/04 05:18:56;;;;;;;1.30;1.10;;;2.40;99.90;;;;;;2081602;28;20528;-64
2021/11/04 05:19:57;;;;;;;1.50;1.40;;;2.40;99.90;;;;;;2081502;28;20187;-63
2021/11/04 05:20:58;;;;;;;3.15;1.50;;;2.40;99.90;;;;;;2081501;28;20193;-64
2021/11/04 05:21:59;;;;;;;1.33;1.15;;;2.40;99.90;;;;;;2081228;28;20194;-63
2021/11/04 05:22:59;;;;;;;1.50;1.27;;;2.30;99.90;;;;;;2081489;28;20653;-64
2021/11/04 05:24:01;;;;;;;1.60;1.40;;;2.30;99.90;;;;;;2081548;28;20549;-64
2021/11/04 05:25:02;;;;;;;2.58;1.77;;;2.30;99.90;;;;;;2081660;28;20215;-64
2021/11/04 05:26:03;;;;;;;2.05;1.58;;;2.30;99.90;;;;;;2080850;28;20204;-64
2021/11/04 05:27:05;;;;;;;1.90;1.50;;;2.40;99.90;;;;;;2080772;28;20185;-64
2021/11/04 05:28:06;;;;;;;1.95;1.60;;;2.30;99.90;;;;;;2080771;28;20182;-64
2021/11/04 05:29:07;;;;;;;1.30;1.00;;;2.30;99.90;;;;;;2080858;28;20191;-64